| Date | Time | Temp. (oF) | Dew Point (oF) | Rel. Hum. (%) | Press. (in.) | Wind Dir. | Wind Speed (mph) | Hourly Rainfall (in.) |
|
|---|---|---|---|---|---|---|---|---|---|
| 1 | 07/06 | 00:00 | 80 | 74 | 84 | 30.14 | S | 6 | 0.00 |
| 2 | 07/05 | 23:00 | 80 | 73 | 82 | 30.14 | SSW | 5 | 0.00 |
| 3 | 07/05 | 22:00 | 82 | 74 | 77 | 30.15 | S | 6 | 0.00 |
| 4 | 07/05 | 21:00 | 83 | 73 | 73 | 30.13 | SE | 3 | 0.00 |
| 5 | 07/05 | 20:00 | 86 | 73 | 67 | 30.12 | S | 5 | 0.00 |
| 6 | 07/05 | 19:00 | 88 | 73 | 63 | 30.12 | S | 7 | 0.00 |
| 7 | 07/05 | 18:00 | 88 | 73 | 63 | 30.15 | S | 4 | 0.00 |
| 8 | 07/05 | 17:00 | 89 | 73 | 61 | 30.16 | S | 7 | 0.00 |
| 9 | 07/05 | 16:00 | 87 | 72 | 62 | 30.18 | SSE | 2 | 0.00 |
| 10 | 07/05 | 15:00 | 85 | 74 | 70 | 30.22 | S | 13 | 0.00 |
| 11 | 07/05 | 14:00 | 85 | 73 | 68 | 30.24 | SSW | 4 | 0.00 |
| 12 | 07/05 | 13:00 | 89 | 74 | 63 | 30.24 | SSE | 4 | 0.00 |
| 13 | 07/05 | 12:00 | 88 | 76 | 68 | 30.26 | E | 1 | 0.00 |
| 14 | 07/05 | 11:00 | 85 | 77 | 78 | 30.27 | SSE | 3 | 0.00 |
| 15 | 07/05 | 10:00 | 81 | 76 | 85 | 30.28 | S | 3 | 0.00 |
| 16 | 07/05 | 09:00 | 79 | 76 | 92 | 30.29 | SSE | 3 | 0.00 |
| 17 | 07/05 | 08:00 | 77 | 75 | 96 | 30.29 | SE | 2 | 0.00 |
| 18 | 07/05 | 07:00 | 75 | 74 | 97 | 30.28 | SSE | 3 | 0.00 |
| 19 | 07/05 | 06:00 | 75 | 74 | 97 | 30.28 | SE | 1 | 0.00 |
| 20 | 07/05 | 05:00 | 75 | 73 | 96 | 30.27 | ENE | 2 | 0.00 |
| 21 | 07/05 | 04:00 | 75 | 73 | 96 | 30.27 | ENE | 1 | 0.00 |
| 22 | 07/05 | 03:00 | 76 | 74 | 96 | 30.28 | E | 1 | 0.00 |
| 23 | 07/05 | 02:00 | 76 | 74 | 96 | 30.29 | S | 1 | 0.00 |
| 24 | 07/05 | 01:00 | 76 | 74 | 96 | 30.29 | WNW | 1 | 0.00 |